SARL/AOL METAR and TAF weather

Enter ICAO airport designator
Station Type Date Time Source
SARL METAR 2020/11/28 20:00 UTC NOAA

SARL 282000Z 05015KT 9999 FEW015 FEW045CB BKN100 BKN200 28/22 Q1007 RMK ESTIMATED WIND


Station Type Date Time Source
SARL Decoded METAR 2020/11/28 20:00 UTC NOAA

Paso De Los Libres Aerodrome, Argentina (SARL) 29-41S 057-09W 70M
Nov 28, 2020 - 03:00 PM EST / 2020.11.28 2000 UTC
Wind: from the NE (050 degrees) at 17 MPH (15 KT):0
Visibility: greater than 7 mile(s):0
Sky conditions: mostly cloudy
Weather: Cumulonimbus clouds observed
Temperature: 82 F (28 C)
Dew Point: 71 F (22 C)
Relative Humidity: 69%
Pressure (altimeter): 29.74 in. Hg (1007 hPa)
ob: SARL 282000Z 05015KT 9999 FEW015 FEW045CB BKN100 BKN200 28/22 Q1007 RMK ESTIMATED WIND
cycle: 20

Station Type Date Time Source
SARL TAF UTC NOAA

Error!

Example: see airport list